»·PEaware :: UAL350 KSJC-KSAN

UAL350 :: KSJC-KSAN

FLIGHT INFORMATION

Flight Status: Arrived
Operator:
United Airlines
More flights by this operator :: More flights under this callsign
Pilot: Jeff H. (11722)
Aircraft: BOEING 757-200
(B752)
More flights by this aircraft type
Origin: KSJC Mineta San Jose Intl
United States
Destination: KSAN San Diego Intl-Lindbergh
United States
More flights between these airports :: More routes between these airports
Route: +TECKY3 EBAYE AVE FIM J1 LAX BAYVU5
File this flight plan on PilotEdge
Remarks:
Altitude:
(Current/Filed)
320ft
Speed:
(Current/Filed)
0kts
Departed: 26-Nov-17 11:31 AM
Arrived: 26-Nov-17 12:35 PM
Distance/Time
Traveled:
362nm/1:04
Distance/Time
To Go:
Arrived

Flight Plot

Page will automatically refresh every two minutes.

Flight plan parsing failed; only flown route is shown


Map Options




Map Legend


Flown Route
Filed Route
Departure Airport
Arrival Airport
Navaid (VOR, NDB)
Fix

Horizontal Profiles

Position Reports

Time Latitude Longitude Heading Altitude Ground
Speed
26-Nov-17 11:15 37.366468 -121.927218 48 73ft 0kts
26-Nov-17 11:16 37.366468 -121.927218 48 73ft 0kts
26-Nov-17 11:17 37.366468 -121.927218 48 73ft 0kts
26-Nov-17 11:18 37.366468 -121.927218 48 73ft 0kts
26-Nov-17 11:19 37.366468 -121.927218 48 73ft 0kts
26-Nov-17 11:20 37.366468 -121.927218 48 73ft 0kts
26-Nov-17 11:21 37.366468 -121.927218 48 73ft 0kts
26-Nov-17 11:22 37.366468 -121.927218 48 73ft 0kts
26-Nov-17 11:23 37.366366 -121.927360 48 73ft 1kts
26-Nov-17 11:24 37.366162 -121.927537 4 73ft 0kts
26-Nov-17 11:25 37.366162 -121.927537 4 73ft 0kts
26-Nov-17 11:26 37.366162 -121.927537 4 73ft 0kts
26-Nov-17 11:27 37.366779 -121.928187 304 73ft 7kts
26-Nov-17 11:28 37.367080 -121.929930 303 73ft 6kts
26-Nov-17 11:29 37.368571 -121.931360 321 73ft 8kts
26-Nov-17 11:30 37.370560 -121.933689 316 73ft 14kts
26-Nov-17 11:31 37.373338 -121.936673 320 74ft 12kts
26-Nov-17 11:32 37.375165 -121.938375 320 73ft 0kts
26-Nov-17 11:33 37.375165 -121.938375 320 73ft 0kts
26-Nov-17 11:34 37.375165 -121.938375 320 73ft 0kts
26-Nov-17 11:35 37.375039 -121.939710 208 73ft 16kts
26-Nov-17 11:36 37.357302 -121.920761 139 503ft 199kts
26-Nov-17 11:37 37.313332 -121.872561 140 2438ft 246kts
26-Nov-17 11:38 37.272398 -121.818468 132 4625ft 254kts
26-Nov-17 11:39 37.237077 -121.763342 133 6638ft 256kts
26-Nov-17 11:40 37.201406 -121.707224 134 8651ft 262kts
26-Nov-17 11:41 37.169665 -121.656709 136 10194ft 278kts
26-Nov-17 11:42 37.128309 -121.591636 137 11793ft 331kts
26-Nov-17 11:43 37.077194 -121.511290 137 13462ft 360kts
26-Nov-17 11:44 37.005987 -121.429045 147 15338ft 362kts
26-Nov-17 11:45 36.929216 -121.346671 147 17232ft 373kts
26-Nov-17 11:46 36.852706 -121.265083 147 19064ft 383kts
26-Nov-17 11:47 36.775375 -121.183826 148 20859ft 392kts
26-Nov-17 11:48 36.692826 -121.097822 147 22717ft 405kts
26-Nov-17 11:49 36.607892 -121.007965 147 24582ft 416kts
26-Nov-17 11:50 36.519201 -120.916555 148 26457ft 421kts
26-Nov-17 11:51 36.429878 -120.824989 149 28284ft 420kts
26-Nov-17 11:52 36.340070 -120.734833 150 30151ft 414kts
26-Nov-17 11:53 36.252309 -120.646690 150 31993ft 402kts
26-Nov-17 11:54 36.166882 -120.560962 151 33170ft 400kts
26-Nov-17 11:55 36.077734 -120.471421 150 33188ft 430kts
26-Nov-17 11:56 35.982010 -120.375000 149 33167ft 458kts
26-Nov-17 11:57 35.881482 -120.274735 149 33160ft 468kts
26-Nov-17 11:58 35.788812 -120.161498 143 33164ft 477kts
26-Nov-17 11:59 35.696630 -120.043970 142 33167ft 477kts
26-Nov-17 12:00 35.598955 -119.938689 153 33167ft 464kts
26-Nov-17 12:01 35.498556 -119.851398 153 33132ft 463kts
26-Nov-17 12:02 35.408416 -119.773663 153 33129ft 463kts
26-Nov-17 12:03 35.304067 -119.684343 153 33125ft 463kts
26-Nov-17 12:04 35.199194 -119.593925 153 33129ft 463kts
26-Nov-17 12:05 35.092918 -119.506195 154 33129ft 462kts
26-Nov-17 12:06 34.989993 -119.418755 152 33135ft 464kts
26-Nov-17 12:07 34.885473 -119.327519 150 33124ft 467kts
26-Nov-17 12:08 34.779901 -119.237264 151 33133ft 466kts
26-Nov-17 12:09 34.673304 -119.147954 151 33155ft 466kts
26-Nov-17 12:10 34.571938 -119.049901 147 33154ft 470kts
26-Nov-17 12:11 34.469797 -118.952224 146 33154ft 470kts
26-Nov-17 12:12 34.369461 -118.853035 146 33156ft 470kts
26-Nov-17 12:13 34.268727 -118.755662 147 33156ft 469kts
26-Nov-17 12:14 34.167656 -118.658682 147 33156ft 470kts
26-Nov-17 12:15 34.066609 -118.561129 146 33164ft 469kts
26-Nov-17 12:16 33.965082 -118.463859 146 33162ft 469kts
26-Nov-17 12:17 33.871181 -118.354918 138 32945ft 466kts
26-Nov-17 12:18 33.786695 -118.246715 138 31363ft 430kts
26-Nov-17 12:19 33.708017 -118.146048 139 29800ft 403kts
26-Nov-17 12:20 33.632575 -118.049453 138 28318ft 396kts
26-Nov-17 12:21 33.567153 -117.966829 139 26999ft 387kts
26-Nov-17 12:22 33.500442 -117.881920 138 25619ft 380kts
26-Nov-17 12:23 33.429473 -117.791494 139 24081ft 371kts
26-Nov-17 12:24 33.358819 -117.703420 138 22088ft 363kts
26-Nov-17 12:25 33.290762 -117.616718 138 20105ft 355kts
26-Nov-17 12:26 33.216827 -117.539402 147 17497ft 362kts
26-Nov-17 12:27 33.136330 -117.469213 150 14524ft 356kts
26-Nov-17 12:28 33.058234 -117.407013 149 11879ft 323kts
26-Nov-17 12:29 32.986845 -117.349897 148 9353ft 303kts
26-Nov-17 12:30 32.919497 -117.296196 148 8765ft 291kts
26-Nov-17 12:31 32.853566 -117.243599 147 7229ft 283kts
26-Nov-17 12:32 32.804665 -117.179093 106 6429ft 261kts
26-Nov-17 12:33 32.786819 -117.099941 101 6005ft 240kts
26-Nov-17 12:34 32.774302 -117.022684 100 5844ft 241kts
26-Nov-17 12:35 32.734911 -116.970641 192 4414ft 238kts
26-Nov-17 12:36 32.696439 -117.020868 255 3377ft 208kts
26-Nov-17 12:37 32.706578 -117.079623 289 3071ft 165kts
26-Nov-17 12:38 32.717496 -117.125101 285 1545ft 122kts
26-Nov-17 12:39 32.727224 -117.163909 285 470ft 121kts
26-Nov-17 12:40 32.734443 -117.193352 281 29ft 27kts
26-Nov-17 12:41 32.734102 -117.196275 285 28ft 13kts
26-Nov-17 12:42 32.734187 -117.199731 183 28ft 10kts
26-Nov-17 12:43 32.733342 -117.199052 117 28ft 0kts

Navigation Log

Ident Type
Flight plan parsing failed, navigation log unavailable